Time;durP1;ratioP1;P1;durP2;ratioP2;P2;SDS_P1;SDS_P2;PMS_P1;PMS_P2;Temp;Humidity;BMP_temperature;BMP_pressure;BME280_temperature;BME280_humidity;BME280_pressure;Samples;Min_cycle;Max_cycle;Signal;HPM_P1;HPM_P2
2022/05/26 00:01:05;;;;;;;9.88;4.95;;;;;;;14.56;100.00;100320.97;5015893;28;20061;-90
2022/05/26 00:03:36;;;;;;;7.15;4.18;;;;;;;14.55;100.00;100325.03;5010798;28;20083;-89
2022/05/26 00:06:02;;;;;;;5.60;4.63;;;;;;;14.57;100.00;100324.56;5023511;28;20104;-90
2022/05/26 00:08:28;;;;;;;6.47;4.50;;;;;;;14.49;100.00;100321.25;5032518;28;20025;-89
2022/05/26 00:10:57;;;;;;;5.35;4.30;;;;;;;14.54;100.00;100320.69;5032858;28;20045;-90
2022/05/26 00:13:22;;;;;;;13.27;5.30;;;;;;;14.45;100.00;100303.88;5013677;28;20041;-90
2022/05/26 00:15:49;;;;;;;7.30;5.00;;;;;;;14.39;100.00;100300.13;5032583;28;20473;-91
2022/05/26 00:18:15;;;;;;;7.90;5.20;;;;;;;14.38;100.00;100313.31;5033699;28;20041;-91
2022/05/26 00:20:40;;;;;;;8.18;5.20;;;;;;;14.32;100.00;100317.88;5011005;28;20037;-91
2022/05/26 00:23:06;;;;;;;6.53;5.65;;;;;;;14.31;100.00;100315.56;5030442;28;20045;-91
2022/05/26 00:25:31;;;;;;;7.28;5.95;;;;;;;14.26;100.00;100304.97;5030222;28;20041;-91
2022/05/26 00:27:57;;;;;;;6.43;5.82;;;;;;;14.18;100.00;100298.09;5032470;28;20080;-91
2022/05/26 00:30:22;;;;;;;6.70;5.82;;;;;;;14.24;100.00;100308.22;5032417;28;20037;-91
2022/05/26 00:32:48;;;;;;;8.90;5.97;;;;;;;14.22;100.00;100301.53;5032065;28;20032;-91
2022/05/26 00:35:15;;;;;;;7.32;6.63;;;;;;;14.20;100.00;100295.63;5010905;28;20033;-91
2022/05/26 00:37:42;;;;;;;8.55;6.13;;;;;;;14.13;100.00;100293.88;5028915;28;20161;-90
2022/05/26 00:40:08;;;;;;;7.03;6.20;;;;;;;14.15;100.00;100293.44;5011631;28;20042;-91
2022/05/26 00:42:34;;;;;;;7.22;6.53;;;;;;;14.14;100.00;100303.81;5006500;28;20467;-90
2022/05/26 00:45:00;;;;;;;7.30;5.85;;;;;;;14.20;100.00;100312.38;5032612;28;20056;-86
2022/05/26 00:47:28;;;;;;;7.97;5.93;;;;;;;14.18;100.00;100304.47;5029633;28;20168;-85
2022/05/26 00:49:58;;;;;;;6.85;5.63;;;;;;;14.19;100.00;100294.88;5017428;28;20513;-85
2022/05/26 00:52:31;;;;;;;7.18;6.00;;;;;;;14.12;100.00;100277.59;5010975;28;20395;-85
2022/05/26 00:55:02;;;;;;;6.90;5.47;;;;;;;14.20;100.00;100284.47;5010622;28;20040;-86
2022/05/26 00:57:35;;;;;;;6.30;5.47;;;;;;;14.18;100.00;100292.53;5013569;28;20040;-85
2022/05/26 01:00:05;;;;;;;8.20;5.95;;;;;;;14.16;100.00;100312.50;5029426;28;20033;-85
2022/05/26 01:02:45;;;;;;;6.43;5.45;;;;;;;14.16;100.00;100320.88;5279074;22;20171;-90
2022/05/26 01:05:15;;;;;;;8.05;5.82;;;;;;;14.14;100.00;100342.88;4998555;28;20037;-91
2022/05/26 01:07:41;;;;;;;7.15;6.03;;;;;;;14.05;100.00;100342.81;4996516;28;20354;-91
2022/05/26 01:10:09;;;;;;;7.43;5.85;;;;;;;14.03;100.00;100348.81;5013411;28;20049;-91
2022/05/26 01:12:34;;;;;;;8.38;6.25;;;;;;;14.04;100.00;100349.59;4998445;28;20026;-91
2022/05/26 01:15:07;;;;;;;6.90;5.70;;;;;;;14.08;100.00;100343.91;5015363;28;20371;-92
2022/05/26 01:17:45;;;;;;;7.55;5.78;;;;;;;14.03;100.00;100332.09;4997377;28;20055;-92
2022/05/26 01:20:13;;;;;;;7.32;5.47;;;;;;;13.96;100.00;100337.94;4997726;28;20033;-89
2022/05/26 01:22:53;;;;;;;7.60;5.60;;;;;;;13.92;100.00;100342.06;4998064;28;20414;-89
2022/05/26 01:25:48;;;;;;;7.88;5.40;;;;;;;13.95;100.00;100336.38;4999985;28;20033;-89
2022/05/26 01:28:51;;;;;;;6.00;5.35;;;;;;;13.98;100.00;100338.25;5009317;28;20107;-89
2022/05/26 01:31:39;;;;;;;7.60;5.47;;;;;;;13.99;100.00;100331.44;5013745;28;20037;-89
2022/05/26 01:34:38;;;;;;;7.93;6.45;;;;;;;14.08;100.00;100343.91;5013612;28;20494;-89
2022/05/26 01:37:22;;;;;;;8.05;6.15;;;;;;;14.11;100.00;100351.38;5014972;28;20045;-92
2022/05/26 01:39:48;;;;;;;8.55;6.00;;;;;;;14.12;100.00;100356.47;4996803;28;20068;-89
2022/05/26 01:42:52;;;;;;;7.55;6.07;;;;;;;14.14;100.00;100365.19;4995168;28;20465;-89
2022/05/26 01:45:20;;;;;;;;;;;;;;;14.10;100.00;100363.75;5018052;28;20080;-89
2022/05/26 01:47:51;;;;;;;7.55;6.55;;;;;;;14.01;100.00;100359.66;5013554;28;19990;-89
2022/05/26 01:50:38;;;;;;;7.15;6.45;;;;;;;14.03;100.00;100359.97;4995508;28;20060;-89
2022/05/26 01:53:22;;;;;;;10.70;6.97;;;;;;;13.97;100.00;100367.38;4993113;28;20033;-89
2022/05/26 01:55:48;;;;;;;9.68;6.82;;;;;;;14.03;100.00;100370.38;4996584;28;20048;-89
2022/05/26 01:58:21;;;;;;;9.57;7.00;;;;;;;14.05;100.00;100361.53;4994690;28;20041;-91
2022/05/26 02:00:47;;;;;;;9.70;7.28;;;;;;;14.08;100.00;100357.84;4976563;28;20052;-91
2022/05/26 02:03:15;;;;;;;12.13;7.47;;;;;;;14.08;100.00;100367.00;5007583;28;20570;-92
2022/05/26 02:06:23;;;;;;;10.00;7.10;;;;;;;14.02;100.00;100358.44;4994710;28;20034;-90
2022/05/26 02:08:56;;;;;;;8.70;7.43;;;;;;;14.16;100.00;100367.50;4985889;28;20042;-91
2022/05/26 02:11:22;;;;;;;7.78;6.82;;;;;;;14.17;100.00;100378.22;5010324;28;20041;-91
2022/05/26 02:13:51;;;;;;;7.70;6.93;;;;;;;14.21;100.00;100387.25;4988080;28;20580;-91
2022/05/26 02:16:22;;;;;;;9.73;7.25;;;;;;;14.18;100.00;100381.81;5014305;28;20037;-88
2022/05/26 02:18:56;;;;;;;9.48;6.63;;;;;;;14.21;100.00;100378.09;4984348;28;20037;-88
2022/05/26 02:21:38;;;;;;;8.73;6.43;;;;;;;14.21;100.00;100375.31;4992361;28;20084;-89
2022/05/26 02:24:08;;;;;;;10.40;7.50;;;;;;;14.24;100.00;100379.97;4979285;28;20067;-89
2022/05/26 02:26:35;;;;;;;9.50;7.72;;;;;;;14.25;100.00;100375.97;4978051;28;20038;-89
2022/05/26 02:31:51;;;;;;;7.30;6.35;;;;;;;14.13;100.00;100376.78;4994540;28;20112;-89
2022/05/26 02:34:18;;;;;;;10.02;6.10;;;;;;;14.12;100.00;100380.81;4998077;28;20033;-90
2022/05/26 02:36:45;;;;;;;6.95;6.25;;;;;;;14.12;100.00;100389.19;5012160;28;20057;-91
2022/05/26 02:39:10;;;;;;;8.02;5.90;;;;;;;14.13;100.00;100385.16;4995896;28;20037;-89
2022/05/26 02:41:36;;;;;;;8.73;6.68;;;;;;;14.19;100.00;100400.09;5011724;28;20033;-88
2022/05/26 02:44:03;;;;;;;7.88;7.07;;;;;;;14.15;100.00;100393.88;4994623;28;20068;-88
2022/05/26 02:46:44;;;;;;;8.15;7.30;;;;;;;14.21;100.00;100409.56;5006928;28;20414;-89
2022/05/26 02:49:25;;;;;;;9.98;7.88;;;;;;;14.22;100.00;100418.72;4998253;28;20400;-89
2022/05/26 02:52:16;;;;;;;9.38;8.43;;;;;;;14.19;100.00;100411.25;4977338;28;20034;-89
2022/05/26 02:55:14;;;;;;;10.63;8.40;;;;;;;14.08;100.00;100394.09;5013038;28;20033;-92
2022/05/26 02:58:06;;;;;;;9.65;8.30;;;;;;;14.14;100.00;100398.66;4981416;28;20077;-91
2022/05/26 03:00:54;;;;;;;9.40;8.48;;;;;;;14.25;100.00;100403.84;5011290;28;20033;-92
2022/05/26 03:03:25;;;;;;;10.15;8.40;;;;;;;14.24;100.00;100405.09;5028849;28;20413;-92
2022/05/26 03:05:51;;;;;;;10.73;8.60;;;;;;;14.27;100.00;100407.00;4992555;28;20038;-91
2022/05/26 03:08:20;;;;;;;9.45;8.45;;;;;;;14.29;100.00;100422.03;5009059;28;20045;-91
2022/05/26 03:10:51;;;;;;;8.77;7.88;;;;;;;14.27;100.00;100418.94;5018574;28;20052;-90
2022/05/26 03:13:17;;;;;;;9.52;8.15;;;;;;;14.30;100.00;100422.81;4978634;28;20044;-88
2022/05/26 03:15:43;;;;;;;10.57;7.95;;;;;;;14.35;100.00;100428.63;4979196;28;20030;-91
2022/05/26 03:18:09;;;;;;;9.38;8.48;;;;;;;14.29;100.00;100424.81;5011945;28;20478;-91
2022/05/26 03:20:36;;;;;;;9.10;8.30;;;;;;;14.33;100.00;100433.06;5011817;28;20052;-91
2022/05/26 03:23:02;;;;;;;11.57;8.57;;;;;;;14.25;100.00;100426.97;4964336;28;20033;-92
2022/05/26 03:25:28;;;;;;;13.80;8.90;;;;;;;14.24;100.00;100424.63;4996839;28;20407;-92
2022/05/26 03:27:53;;;;;;;10.63;8.57;;;;;;;14.22;100.00;100443.84;5007053;28;20045;-93
2022/05/26 03:30:19;;;;;;;9.25;7.75;;;;;;;14.22;100.00;100438.25;4992604;28;20041;-92
2022/05/26 03:32:46;;;;;;;10.40;8.35;;;;;;;14.24;100.00;100455.31;5012571;28;20041;-89
2022/05/26 03:40:57;;;;;;;9.15;8.20;;;;;;;14.12;100.00;100456.91;5004336;28;20128;-89
2022/05/26 03:43:30;;;;;;;9.93;8.65;;;;;;;14.12;100.00;100473.66;5014121;28;20026;-89
2022/05/26 03:45:58;;;;;;;9.27;8.20;;;;;;;14.14;100.00;100467.63;5008982;28;20049;-89
2022/05/26 03:48:24;;;;;;;10.90;8.73;;;;;;;14.15;100.00;100471.97;4961571;28;20038;-89
2022/05/26 03:50:49;;;;;;;9.48;8.48;;;;;;;14.16;100.00;100456.78;4966469;28;20046;-92
2022/05/26 03:53:15;;;;;;;9.38;8.18;;;;;;;14.18;100.00;100455.13;4992406;28;20026;-92
2022/05/26 03:55:40;;;;;;;9.63;8.50;;;;;;;14.20;100.00;100457.44;5009433;28;20430;-91
2022/05/26 03:58:06;;;;;;;9.70;7.50;;;;;;;14.22;100.00;100468.94;4995221;28;20033;-93
2022/05/26 04:00:32;;;;;;;8.80;7.90;;;;;;;14.26;100.00;100467.59;4994643;28;20536;-92
2022/05/26 04:02:58;;;;;;;8.38;7.22;;;;;;;14.26;100.00;100480.75;4975373;28;20069;-92
2022/05/26 04:05:24;;;;;;;11.05;7.90;;;;;;;14.22;100.00;100477.31;5008224;28;20113;-92
2022/05/26 04:07:50;;;;;;;8.73;7.82;;;;;;;14.19;100.00;100478.22;4993837;28;20041;-92
2022/05/26 04:10:15;;;;;;;8.73;7.82;;;;;;;14.23;100.00;100495.63;4992131;28;20056;-89
2022/05/26 04:12:44;;;;;;;10.00;8.40;;;;;;;14.26;100.00;100494.72;4977024;28;20037;-92
2022/05/26 04:15:11;;;;;;;11.50;8.48;;;;;;;14.28;100.00;100497.81;4967771;28;20038;-92
2022/05/26 04:17:37;;;;;;;10.18;8.75;;;;;;;14.32;100.00;100481.72;4993928;28;20041;-93
2022/05/26 04:20:05;;;;;;;10.75;8.82;;;;;;;14.41;100.00;100506.97;4995587;28;20466;-92
2022/05/26 04:22:31;;;;;;;9.98;8.35;;;;;;;14.36;100.00;100511.09;5013079;28;20483;-91
2022/05/26 04:24:57;;;;;;;9.52;8.63;;;;;;;14.36;100.00;100515.91;5014662;28;20121;-92
2022/05/26 04:27:27;;;;;;;11.48;8.45;;;;;;;14.36;100.00;100510.31;5001130;28;20372;-92
2022/05/26 04:29:53;;;;;;;9.82;8.82;;;;;;;14.38;100.00;100514.25;4996746;28;20048;-94
2022/05/26 04:32:21;;;;;;;10.18;8.55;;;;;;;14.44;100.00;100523.59;4999640;28;20029;-94
2022/05/26 04:34:48;;;;;;;10.52;8.65;;;;;;;14.50;100.00;100504.25;5012128;28;20466;-92
2022/05/26 04:37:17;;;;;;;9.30;8.48;;;;;;;14.47;100.00;100510.75;4994931;28;20036;-92
2022/05/26 04:39:43;;;;;;;9.88;8.38;;;;;;;14.50;100.00;100515.44;4999090;28;20092;-92
2022/05/26 04:42:09;;;;;;;9.80;7.63;;;;;;;14.56;100.00;100516.38;4982781;28;20503;-91
2022/05/26 04:44:37;;;;;;;9.05;7.15;;;;;;;14.60;100.00;100519.84;4986165;28;20036;-90
2022/05/26 04:47:03;;;;;;;7.35;6.63;;;;;;;14.62;100.00;100522.97;4976459;28;20098;-91
2022/05/26 04:49:29;;;;;;;9.30;6.78;;;;;;;14.64;100.00;100517.69;5001706;28;20058;-88
2022/05/26 04:51:55;;;;;;;8.38;7.05;;;;;;;14.75;100.00;100526.50;4988015;28;20049;-89
2022/05/26 04:54:21;;;;;;;7.40;6.70;;;;;;;14.78;100.00;100522.78;4988803;28;20064;-88
2022/05/26 04:56:46;;;;;;;8.43;6.75;;;;;;;14.73;100.00;100517.78;4969817;28;20100;-89
2022/05/26 04:59:12;;;;;;;7.85;6.38;;;;;;;14.82;100.00;100531.03;4980629;28;20030;-90
2022/05/26 05:01:38;;;;;;;7.28;6.20;;;;;;;14.84;100.00;100523.75;4984860;28;20099;-89
2022/05/26 05:04:04;;;;;;;10.27;6.32;;;;;;;14.87;100.00;100528.44;4995468;28;20056;-89
2022/05/26 05:06:29;;;;;;;6.43;5.80;;;;;;;14.87;100.00;100528.44;4974607;28;20030;-89
2022/05/26 05:08:55;;;;;;;7.55;5.80;;;;;;;14.98;100.00;100532.84;4982837;28;20026;-89
2022/05/26 05:11:21;;;;;;;6.10;5.40;;;;;;;15.04;100.00;100537.41;4997899;28;20160;-89
2022/05/26 05:13:46;;;;;;;8.48;5.22;;;;;;;15.09;100.00;100527.63;5006971;28;20104;-90
2022/05/26 05:16:19;;;;;;;10.23;8.18;;;;;;;15.12;100.00;100535.13;5013596;28;20022;-90
2022/05/26 05:18:45;;;;;;;7.43;6.22;;;;;;;15.16;100.00;100544.16;4991008;28;20038;-89
2022/05/26 05:21:14;;;;;;;8.43;6.15;;;;;;;15.18;100.00;100544.47;5019884;28;20045;-89
2022/05/26 05:23:43;;;;;;;16.25;10.48;;;;;;;15.14;100.00;100536.22;4979950;28;20065;-89
2022/05/26 05:26:10;;;;;;;12.80;8.40;;;;;;;15.17;100.00;100518.53;5001674;28;20018;-88
2022/05/26 05:28:38;;;;;;;9.60;7.55;;;;;;;15.37;100.00;100538.53;5001786;28;20029;-86
2022/05/26 05:31:14;;;;;;;8.85;6.70;;;;;;;15.54;100.00;100536.31;4998339;28;20034;-87
2022/05/26 05:33:44;;;;;;;9.27;7.68;;;;;;;15.80;100.00;100534.88;5014766;28;20448;-86
2022/05/26 05:36:14;;;;;;;7.07;5.30;;;;;;;15.99;100.00;100532.13;4982484;28;20040;-87
2022/05/26 05:38:40;;;;;;;7.05;5.10;;;;;;;16.27;100.00;100542.91;4982320;28;20022;-87
2022/05/26 05:41:10;;;;;;;6.47;4.30;;;;;;;16.49;100.00;100545.59;5014172;28;20116;-86
2022/05/26 05:43:36;;;;;;;6.55;4.20;;;;;;;16.66;100.00;100549.66;4997763;28;20144;-86
2022/05/26 05:46:02;;;;;;;5.05;4.15;;;;;;;16.81;100.00;100546.25;5014287;28;20033;-86
2022/05/26 05:48:28;;;;;;;6.88;3.88;;;;;;;16.89;100.00;100547.50;4998438;28;20068;-89
2022/05/26 05:50:54;;;;;;;4.38;3.55;;;;;;;16.94;100.00;100550.47;4997798;28;20029;-86
2022/05/26 05:53:20;;;;;;;6.20;3.83;;;;;;;17.07;100.00;100544.66;5013544;28;20044;-86
2022/05/26 05:55:46;;;;;;;4.22;3.65;;;;;;;17.16;100.00;100550.25;4996240;28;20033;-87
2022/05/26 05:58:11;;;;;;;7.00;3.10;;;;;;;17.32;100.00;100552.72;5010200;28;20510;-86
2022/05/26 06:00:40;;;;;;;5.63;3.10;;;;;;;17.41;100.00;100563.16;5011372;28;20040;-86
2022/05/26 06:03:06;;;;;;;7.18;3.40;;;;;;;17.42;99.08;100562.69;4995562;28;20538;-86
2022/05/26 06:05:32;;;;;;;4.15;3.38;;;;;;;17.47;99.29;100559.22;4981275;28;20033;-86
2022/05/26 06:07:58;;;;;;;4.38;3.40;;;;;;;17.45;98.96;100560.94;4997175;28;20528;-91
2022/05/26 06:10:25;;;;;;;5.32;3.72;;;;;;;17.40;98.54;100562.38;5011325;28;20056;-90
2022/05/26 06:12:51;;;;;;;4.55;3.50;;;;;;;17.57;98.72;100562.78;4968112;28;20053;-90
2022/05/26 06:15:18;;;;;;;6.68;3.53;;;;;;;17.64;99.05;100557.66;4976110;28;20033;-90
2022/05/26 06:17:43;;;;;;;4.90;3.10;;;;;;;17.80;97.44;100564.13;5012969;28;20091;-91
2022/05/26 06:20:10;;;;;;;6.25;3.20;;;;;;;17.98;96.61;100569.66;4996702;28;20037;-90
2022/05/26 06:22:38;;;;;;;5.65;3.00;;;;;;;18.18;97.10;100572.69;5013531;28;20506;-91
2022/05/26 06:25:04;;;;;;;5.15;2.80;;;;;;;18.27;94.80;100564.22;5030580;28;20087;-86
2022/05/26 06:30:16;;;;;;;4.43;3.13;;;;;;;18.41;92.10;100573.94;5016684;28;20045;-86
2022/05/26 06:38:19;;;;;;;3.30;2.70;;;;;;;18.26;90.45;100573.88;5030472;28;20065;-86
2022/05/26 06:40:45;;;;;;;5.80;2.70;;;;;;;18.37;91.79;100578.97;4997741;28;20046;-85
2022/05/26 06:43:10;;;;;;;7.03;2.60;;;;;;;18.49;91.30;100580.75;5013508;28;20037;-88
2022/05/26 06:45:38;;;;;;;4.15;2.60;;;;;;;18.43;90.73;100577.84;4997710;28;20037;-86
2022/05/26 06:48:03;;;;;;;5.32;2.65;;;;;;;18.42;91.15;100583.94;5030048;28;20470;-85
2022/05/26 06:50:29;;;;;;;5.00;2.50;;;;;;;18.39;90.07;100571.63;5013453;28;20041;-86
2022/05/26 06:52:55;;;;;;;4.13;2.70;;;;;;;18.53;91.47;100576.53;4980885;28;20037;-86
2022/05/26 06:55:20;;;;;;;4.13;2.70;;;;;;;18.34;90.87;100580.69;4980676;28;20482;-86
2022/05/26 06:57:46;;;;;;;5.75;2.70;;;;;;;18.33;90.96;100573.53;4997243;28;20414;-86
2022/05/26 07:00:14;;;;;;;6.22;2.85;;;;;;;18.46;91.57;100582.50;4978736;28;20022;-86
2022/05/26 07:02:40;;;;;;;4.63;2.72;;;;;;;18.67;91.04;100591.13;4993880;28;20068;-85
2022/05/26 07:05:07;;;;;;;3.88;2.70;;;;;;;18.52;90.93;100586.22;4993882;28;20041;-86
2022/05/26 07:07:35;;;;;;;4.05;2.67;;;;;;;18.51;91.13;100595.13;4993704;28;20033;-86
2022/05/26 07:10:02;;;;;;;4.15;2.85;;;;;;;18.75;90.65;100600.75;4993505;28;20053;-86
2022/05/26 07:12:27;;;;;;;5.45;2.58;;;;;;;18.99;89.14;100596.66;4977301;28;20064;-86
2022/05/26 07:14:54;;;;;;;4.47;2.90;;;;;;;19.14;89.77;100601.50;4961161;28;20065;-86
2022/05/26 07:17:19;;;;;;;7.47;3.00;;;;;;;19.28;88.27;100607.16;4977456;28;20038;-86
2022/05/26 07:19:45;;;;;;;5.10;2.80;;;;;;;19.46;87.49;100615.44;4961065;28;20096;-86
2022/05/26 07:22:11;;;;;;;3.92;3.00;;;;;;;19.54;88.04;100607.38;4961174;28;20053;-86
2022/05/26 07:24:37;;;;;;;5.07;3.10;;;;;;;19.63;87.73;100592.44;4993642;28;20033;-85
2022/05/26 07:27:03;;;;;;;4.28;3.03;;;;;;;19.62;87.39;100604.97;4993400;28;20033;-86
2022/05/26 07:29:29;;;;;;;5.97;3.45;;;;;;;19.78;86.29;100610.09;4992961;28;20030;-86
2022/05/26 07:31:54;;;;;;;6.68;3.03;;;;;;;19.92;84.97;100606.50;4977251;28;20029;-87
2022/05/26 07:34:20;;;;;;;4.75;2.88;;;;;;;19.76;85.01;100607.78;4976768;28;20034;-86
2022/05/26 07:42:18;;;;;;;4.00;2.40;;;;;;;20.18;82.73;100615.84;5009472;28;20030;-86
2022/05/26 07:44:46;;;;;;;5.28;2.42;;;;;;;20.28;82.11;100620.13;4993287;28;20030;-90
2022/05/26 07:47:12;;;;;;;3.70;2.40;;;;;;;20.57;81.64;100616.44;4977572;28;20046;-91
2022/05/26 07:49:43;;;;;;;6.45;2.40;;;;;;;20.73;79.41;100620.75;4977149;28;20029;-91
2022/05/26 07:52:10;;;;;;;6.72;2.42;;;;;;;21.06;79.29;100615.53;4981138;28;20410;-90
2022/05/26 07:54:36;;;;;;;2.83;2.30;;;;;;;21.12;77.59;100616.38;4980356;28;20030;-91
2022/05/26 07:57:01;;;;;;;6.40;2.58;;;;;;;21.35;79.81;100618.16;4981038;28;20506;-91
2022/05/26 07:59:28;;;;;;;4.35;2.38;;;;;;;21.57;76.74;100614.78;4996934;28;20033;-87
2022/05/26 08:01:53;;;;;;;2.10;1.90;;;;;;;21.53;73.67;100616.28;4980633;28;20467;-90
2022/05/26 08:04:19;;;;;;;2.80;2.08;;;;;;;21.35;74.60;100620.97;4980180;28;20042;-91
2022/05/26 08:06:46;;;;;;;3.60;2.00;;;;;;;21.25;74.30;100621.66;4980874;28;20038;-90
2022/05/26 08:09:22;;;;;;;2.95;1.70;;;;;;;20.92;75.15;100622.78;4980642;28;20096;-90
2022/05/26 08:11:48;;;;;;;2.50;1.95;;;;;;;21.09;76.55;100608.88;4981005;28;20124;-90
2022/05/26 08:14:14;;;;;;;4.00;1.90;;;;;;;21.42;76.29;100613.34;4980438;28;20155;-90
2022/05/26 08:16:41;;;;;;;3.67;1.88;;;;;;;21.78;73.72;100623.97;4996884;28;20361;-91
2022/05/26 08:19:07;;;;;;;5.22;2.00;;;;;;;21.73;73.22;100621.84;4980536;28;20368;-86
2022/05/26 08:21:33;;;;;;;4.63;1.70;;;;;;;21.82;73.54;100625.28;4996486;28;20048;-86
2022/05/26 08:24:00;;;;;;;2.90;1.95;;;;;;;21.81;71.40;100620.13;4980414;28;20022;-86
2022/05/26 08:26:29;;;;;;;3.33;2.10;;;;;;;21.76;71.27;100620.84;4980138;28;20083;-86
2022/05/26 08:28:55;;;;;;;3.10;2.28;;;;;;;21.92;71.35;100628.72;4980238;28;20029;-86
2022/05/26 08:31:21;;;;;;;3.03;1.83;;;;;;;22.11;70.07;100624.25;4980212;28;20073;-86
2022/05/26 08:33:47;;;;;;;3.92;1.85;;;;;;;22.17;68.01;100610.94;4996148;28;20493;-86
2022/05/26 08:36:15;;;;;;;2.72;1.90;;;;;;;22.30;70.15;100621.81;4963993;28;20160;-87
2022/05/26 08:38:46;;;;;;;6.15;2.15;;;;;;;22.08;70.05;100630.88;4980076;28;20080;-86
2022/05/26 08:41:16;;;;;;;4.13;1.92;;;;;;;21.92;70.44;100634.38;4996944;28;20422;-91
2022/05/26 08:43:51;;;;;;;4.95;2.00;;;;;;;21.54;70.41;100643.25;4996357;28;20069;-91
2022/05/26 08:46:19;;;;;;;3.88;1.90;;;;;;;21.32;71.71;100640.94;4979792;28;20116;-91
2022/05/26 08:48:50;;;;;;;2.15;1.70;;;;;;;21.54;73.00;100643.25;5013607;28;20495;-91
2022/05/26 08:51:24;;;;;;;2.65;1.80;;;;;;;21.68;70.38;100642.34;4980073;28;20045;-91
2022/05/26 08:53:50;;;;;;;3.50;2.03;;;;;;;21.71;71.91;100641.34;4996076;28;20030;-90
2022/05/26 08:56:20;;;;;;;3.15;2.10;;;;;;;21.80;72.40;100656.06;4995991;28;20407;-90
2022/05/26 08:58:47;;;;;;;3.55;2.20;;;;;;;21.93;72.40;100647.22;5012317;28;20041;-91
2022/05/26 09:01:18;;;;;;;2.83;2.03;;;;;;;22.02;71.61;100641.38;4994862;28;20116;-91
2022/05/26 09:03:45;;;;;;;2.67;1.90;;;;;;;22.00;71.01;100635.44;4979218;28;20038;-89
2022/05/26 09:06:16;;;;;;;7.57;2.42;;;;;;;21.91;70.66;100632.81;4995925;28;20138;-90
2022/05/26 09:14:26;;;;;;;3.63;2.00;;;;;;;22.29;68.68;100634.38;4997020;28;20124;-91
2022/05/26 09:17:07;;;;;;;3.47;2.20;;;;;;;22.54;70.48;100629.91;4995884;28;20038;-87
2022/05/26 09:19:42;;;;;;;4.90;1.92;;;;;;;22.87;70.45;100637.81;4995441;28;20514;-86
2022/05/26 09:22:25;;;;;;;2.63;2.00;;;;;;;22.78;68.42;100633.91;4995546;28;20048;-86
2022/05/26 09:24:51;;;;;;;4.55;2.08;;;;;;;22.78;69.36;100633.16;4995471;28;20100;-87
2022/05/26 09:27:36;;;;;;;9.00;2.38;;;;;;;22.73;70.14;100643.16;4979363;28;20360;-87
2022/05/26 09:30:21;;;;;;;4.10;2.17;;;;;;;22.77;66.72;100634.41;4978940;28;20511;-86
2022/05/26 09:32:48;;;;;;;2.67;2.08;;;;;;;22.38;66.92;100636.25;4979397;28;20042;-87
2022/05/26 09:35:19;;;;;;;2.92;2.28;;;;;;;22.12;67.49;100639.91;4995127;28;20475;-86
2022/05/26 09:37:47;;;;;;;5.20;2.20;;;;;;;22.08;68.47;100636.53;5012898;28;20034;-86
2022/05/26 09:40:20;;;;;;;3.72;2.10;;;;;;;22.38;68.51;100633.41;4978747;28;20030;-86
2022/05/26 09:43:16;;;;;;;3.17;1.80;;;;;;;22.65;67.09;100632.78;4978909;28;20037;-86
2022/05/26 09:45:45;;;;;;;3.28;1.90;;;;;;;22.65;66.01;100629.97;4991633;28;20049;-86
2022/05/26 09:48:16;;;;;;;3.78;1.90;;;;;;;22.70;63.37;100646.22;4995188;28;20030;-87
2022/05/26 09:50:45;;;;;;;4.00;1.77;;;;;;;22.73;65.46;100639.53;4978303;28;20748;-87
2022/05/26 09:53:11;;;;;;;2.55;1.88;;;;;;;22.96;63.86;100634.78;4978670;28;20403;-87
2022/05/26 09:55:55;;;;;;;3.03;2.00;;;;;;;22.89;64.85;100638.84;4978355;28;20042;-90
2022/05/26 09:58:31;;;;;;;2.78;1.98;;;;;;;23.21;62.78;100645.91;4995218;28;20076;-91
2022/05/26 10:01:02;;;;;;;3.55;2.22;;;;;;;23.60;62.30;100639.59;4978624;28;20046;-92
2022/05/26 10:03:40;;;;;;;3.33;1.80;;;;;;;23.76;61.10;100638.84;4990907;28;20051;-92
2022/05/26 10:06:28;;;;;;;2.90;1.80;;;;;;;23.92;61.34;100643.75;4975271;28;20050;-92
2022/05/26 10:09:09;;;;;;;3.45;2.00;;;;;;;24.30;61.06;100635.75;4975110;28;20030;-91
2022/05/26 10:11:49;;;;;;;3.33;1.73;;;;;;;24.66;58.75;100634.63;4975124;28;20117;-91
2022/05/26 10:14:24;;;;;;;3.40;1.80;;;;;;;25.04;57.09;100638.63;4992075;28;20092;-92
2022/05/26 10:16:59;;;;;;;3.85;1.90;;;;;;;25.05;52.18;100638.13;4975075;28;20040;-88
2022/05/26 10:19:45;;;;;;;1.83;1.70;;;;;;;25.14;51.35;100639.88;4974684;28;20030;-87
2022/05/26 10:22:42;;;;;;;2.60;1.80;;;;;;;25.06;51.89;100645.34;4975289;28;20105;-87
2022/05/26 10:25:20;;;;;;;3.15;1.60;;;;;;;25.03;51.32;100635.00;4933766;28;20046;-87
2022/05/26 10:27:56;;;;;;;2.92;1.50;;;;;;;24.76;49.66;100643.59;4974661;28;20137;-87
2022/05/26 10:30:33;;;;;;;3.10;1.92;;;;;;;24.40;50.48;100645.53;4974794;28;20070;-87
2022/05/26 10:33:36;;;;;;;2.90;1.77;;;;;;;24.15;51.14;100641.69;4975094;28;20034;-91
2022/05/26 10:36:10;;;;;;;1.90;1.60;;;;;;;24.36;50.89;100639.34;4992158;28;20402;-92
2022/05/26 10:38:59;;;;;;;4.65;1.95;;;;;;;24.71;48.48;100631.00;4974718;28;20655;-92
2022/05/26 10:41:45;;;;;;;3.70;1.85;;;;;;;24.77;46.56;100636.66;4974558;28;20180;-93
2022/05/26 10:44:26;;;;;;;4.65;1.48;;;;;;;24.84;46.15;100627.59;4958500;28;20518;-93
2022/05/26 10:47:03;;;;;;;3.58;1.80;;;;;;;24.91;47.06;100625.00;4958634;28;20050;-93
2022/05/26 10:49:36;;;;;;;3.40;1.90;;;;;;;24.93;47.26;100630.94;4967679;28;20076;-92
2022/05/26 10:52:15;;;;;;;2.35;1.70;;;;;;;25.16;47.67;100630.81;4984236;28;20052;-87
2022/05/26 10:54:50;;;;;;;4.35;1.85;;;;;;;24.85;47.82;100632.78;4981073;28;21023;-87
2022/05/26 10:57:34;;;;;;;3.38;1.90;;;;;;;25.18;46.73;100622.56;4970656;28;20165;-87
2022/05/26 11:00:01;;;;;;;;;;;;;;;24.93;46.30;100630.16;4986326;28;20488;-87
2022/05/26 11:02:43;;;;;;;2.90;1.90;;;;;;;25.03;46.37;100622.91;4970198;28;20309;-87
2022/05/26 11:05:14;;;;;;;3.65;2.05;;;;;;;25.28;45.94;100627.41;5020105;28;20491;-87
2022/05/26 11:08:20;;;;;;;2.80;1.75;;;;;;;25.34;43.61;100624.53;5009683;28;20038;-87
2022/05/26 11:11:04;;;;;;;2.30;1.40;;;;;;;25.34;42.01;100618.84;4995699;28;20037;-87
2022/05/26 11:14:11;;;;;;;4.75;1.70;;;;;;;25.21;40.25;100618.66;4994815;28;20034;-87
2022/05/26 11:19:43;;;;;;;2.25;1.60;;;;;;;24.27;44.59;100619.75;4998686;28;20522;-87
2022/05/26 11:22:11;;;;;;;2.90;1.50;;;;;;;24.68;45.08;100600.84;4990493;28;20057;-87
2022/05/26 11:24:38;;;;;;;1.73;1.40;;;;;;;24.93;44.48;100602.56;4973478;28;20458;-87
2022/05/26 11:27:05;;;;;;;3.55;1.27;;;;;;;25.22;42.29;100600.34;4985056;28;20028;-88
2022/05/26 11:29:31;;;;;;;1.75;1.17;;;;;;;25.53;39.23;100603.50;5002295;28;20048;-92
2022/05/26 11:38:08;;;;;;;1.88;1.30;;;;;;;24.97;39.62;100597.38;5006328;28;20026;-93
2022/05/26 11:40:58;;;;;;;3.72;1.30;;;;;;;24.61;41.92;100607.06;4984582;28;20041;-93
2022/05/26 11:43:47;;;;;;;3.22;1.30;;;;;;;24.66;40.81;100589.25;5006752;28;20095;-92
2022/05/26 11:46:44;;;;;;;3.25;1.25;;;;;;;24.67;41.28;100590.78;4995671;28;20153;-92
2022/05/26 11:49:11;;;;;;;2.88;1.60;;;;;;;24.78;40.00;100579.41;5009731;28;20395;-93
2022/05/26 11:51:42;;;;;;;2.10;1.30;;;;;;;24.81;39.49;100595.38;4993275;28;20029;-93
2022/05/26 11:54:09;;;;;;;1.92;1.50;;;;;;;24.98;40.51;100593.25;5010343;28;20716;-92
2022/05/26 11:56:41;;;;;;;3.42;1.58;;;;;;;24.78;38.49;100595.66;4990882;28;20037;-92
2022/05/26 11:59:32;;;;;;;3.95;1.45;;;;;;;24.59;40.06;100581.25;4996513;28;20034;-92
2022/05/26 12:02:00;;;;;;;2.05;1.60;;;;;;;24.72;42.56;100586.38;4992945;28;20038;-91
2022/05/26 12:04:49;;;;;;;2.10;1.38;;;;;;;24.79;43.81;100586.59;4993021;28;20104;-93
2022/05/26 12:07:17;;;;;;;2.75;1.50;;;;;;;24.76;44.30;100581.19;4960760;28;20125;-87
2022/05/26 12:10:00;;;;;;;2.05;1.73;;;;;;;24.66;45.31;100583.56;4992373;28;20034;-87
2022/05/26 12:12:25;;;;;;;4.85;1.60;;;;;;;24.53;45.90;100575.63;4991740;28;20491;-87
2022/05/26 12:14:52;;;;;;;3.05;1.60;;;;;;;24.59;45.09;100572.75;4989888;28;20050;-88
2022/05/26 12:17:30;;;;;;;5.22;1.40;;;;;;;24.43;47.41;100570.75;4989466;28;20065;-87